createdAt,value
2022-08-04T00:03:33.384Z,93662.97
2022-08-04T00:08:47.493Z,93655.41
2022-08-04T00:14:03.860Z,93659.94
2022-08-04T00:19:33.082Z,93663.47
2022-08-04T00:24:36.677Z,93659.47
2022-08-04T00:29:42.901Z,93645.59
2022-08-04T00:34:47.539Z,93649.56
2022-08-04T00:39:54.188Z,93642.56
2022-08-04T00:45:16.042Z,93644.56
2022-08-04T00:51:01.180Z,93646.34
2022-08-04T00:56:17.097Z,93641.78
2022-08-04T01:01:43.881Z,93635.41
2022-08-04T01:07:35.378Z,93634.31
2022-08-04T01:12:50.834Z,93645.81
2022-08-04T01:18:06.313Z,93640.72
2022-08-04T01:23:27.793Z,93640.72
2022-08-04T01:28:45.394Z,93634.72
2022-08-04T01:34:03.100Z,93634.13
2022-08-04T01:39:26.971Z,93628.88
2022-08-04T01:44:33.845Z,93639.75
2022-08-04T01:49:40.801Z,93638.09
2022-08-04T01:54:44.614Z,93640.16
2022-08-04T01:59:52.294Z,93636.09
2022-08-04T02:04:57.358Z,93638.41
2022-08-04T02:10:05.414Z,93648.75
2022-08-04T02:15:28.078Z,93637.03
2022-08-04T02:20:31.244Z,93652.00
2022-08-04T02:25:48.008Z,93640.53
2022-08-04T02:31:04.536Z,93654.22
2022-08-04T02:36:11.961Z,93660.25
2022-08-04T02:41:18.471Z,93654.81
2022-08-04T02:46:23.255Z,93640.72
2022-08-04T02:51:32.930Z,93641.25
2022-08-04T02:56:38.925Z,93647.72
2022-08-04T03:01:57.268Z,93636.13
2022-08-04T03:07:20.943Z,93651.88
2022-08-04T03:12:36.197Z,93653.44
2022-08-04T03:18:14.563Z,93645.97
2022-08-04T03:23:45.392Z,93644.78
2022-08-04T03:29:06.514Z,93653.00
2022-08-04T03:34:25.966Z,93640.97
2022-08-04T03:39:55.184Z,93632.56
2022-08-04T03:45:23.087Z,93639.53
2022-08-04T03:51:34.857Z,93635.91
2022-08-04T03:57:21.568Z,93659.53
2022-08-04T04:02:33.930Z,93668.88
2022-08-04T04:07:59.609Z,93668.56
2022-08-04T04:13:29.951Z,93670.19
2022-08-04T04:18:36.214Z,93676.56
2022-08-04T04:23:58.183Z,93673.03
2022-08-04T04:29:07.384Z,93678.13
2022-08-04T04:34:29.370Z,93681.44
2022-08-04T04:40:05.964Z,93683.53
2022-08-04T04:45:39.635Z,93677.38
2022-08-04T04:51:17.058Z,93685.00
2022-08-04T04:56:35.950Z,93679.72
2022-08-04T05:02:25.513Z,93685.28
2022-08-04T05:08:44.947Z,93690.28
2022-08-04T05:14:35.951Z,93693.78
2022-08-04T05:19:44.508Z,93692.72
2022-08-04T05:24:56.075Z,93700.09
2022-08-04T05:30:03.522Z,93701.09
2022-08-04T05:35:12.785Z,93692.78
2022-08-04T05:40:19.738Z,93700.56
2022-08-04T05:45:24.115Z,93702.59
2022-08-04T05:50:27.913Z,93699.47
2022-08-04T05:55:58.315Z,93702.22
2022-08-04T06:01:02.702Z,93698.75
2022-08-04T06:06:07.964Z,93693.34
2022-08-04T06:11:12.856Z,93704.88
2022-08-04T06:16:29.137Z,93696.31
2022-08-04T06:21:38.882Z,93710.22
2022-08-04T06:26:43.172Z,93704.13
2022-08-04T06:32:26.930Z,93706.91
2022-08-04T06:37:41.380Z,93714.19
2022-08-04T06:42:45.986Z,93713.47
2022-08-04T06:47:51.006Z,93712.59
2022-08-04T06:52:54.175Z,93703.63
2022-08-04T06:58:03.083Z,93719.03
2022-08-04T07:03:07.805Z,93721.22
2022-08-04T07:08:12.464Z,93722.63
2022-08-04T07:13:19.264Z,93725.53
2022-08-04T07:18:22.470Z,93723.06
2022-08-04T07:23:27.087Z,93720.44
2022-08-04T07:28:30.657Z,93721.50
2022-08-04T07:33:34.234Z,93719.34
2022-08-04T07:38:50.670Z,93707.06
2022-08-04T07:43:55.198Z,93723.53
2022-08-04T07:49:01.449Z,93733.44
2022-08-04T07:54:08.033Z,93727.59
2022-08-04T07:59:11.892Z,93732.06
2022-08-04T08:04:16.484Z,93727.53
2022-08-04T08:09:24.207Z,93736.28
2022-08-04T08:14:28.640Z,93735.66
2022-08-04T08:19:33.237Z,93737.56
2022-08-04T08:24:38.035Z,93731.97
2022-08-04T08:29:41.716Z,93724.59
2022-08-04T08:34:46.176Z,93731.81
2022-08-04T08:40:40.087Z,93724.75
2022-08-04T08:45:57.252Z,93743.72
2022-08-04T08:51:25.194Z,93739.53
2022-08-04T08:56:47.506Z,93723.16
2022-08-04T09:02:12.561Z,93733.00
2022-08-04T09:07:50.113Z,93737.44
2022-08-04T09:13:14.156Z,93736.31
2022-08-04T09:18:27.504Z,93745.31
2022-08-04T09:23:41.778Z,93741.34
2022-08-04T09:35:33.755Z,93729.91
2022-08-04T09:40:56.960Z,93738.78
2022-08-04T09:46:35.352Z,93740.41
2022-08-04T09:51:58.913Z,93742.53
2022-08-04T09:57:27.129Z,93735.97
2022-08-04T10:02:39.057Z,93743.91
2022-08-04T10:08:16.566Z,93734.91
2022-08-04T10:13:49.243Z,93734.84
2022-08-04T10:19:08.638Z,93745.28
2022-08-04T10:24:15.875Z,93743.00
2022-08-04T10:29:28.503Z,93745.03
2022-08-04T10:34:42.464Z,93733.81
2022-08-04T10:40:16.209Z,93733.19
2022-08-04T10:45:25.548Z,93730.31
2022-08-04T10:50:30.029Z,93726.53
2022-08-04T10:56:07.141Z,93742.47
2022-08-04T11:02:00.838Z,93734.22
2022-08-04T11:06:59.933Z,93727.81
2022-08-04T11:12:25.731Z,93727.31
2022-08-04T11:17:35.536Z,93725.25
2022-08-04T11:22:46.866Z,93714.25
2022-08-04T11:28:11.704Z,93720.41
2022-08-04T11:33:18.186Z,93713.44
2022-08-04T11:38:38.002Z,93709.59
2022-08-04T11:44:01.910Z,93693.16
2022-08-04T11:49:56.647Z,93693.94
2022-08-04T11:55:06.674Z,93687.03
2022-08-04T12:00:14.100Z,93681.31
2022-08-04T12:05:23.462Z,93691.34
2022-08-04T12:10:48.716Z,93680.59
2022-08-04T12:16:16.630Z,93680.31
2022-08-04T12:21:55.835Z,93677.53
2022-08-04T12:27:06.537Z,93659.53
2022-08-04T12:32:13.025Z,93680.84
2022-08-04T12:37:26.893Z,93678.44
2022-08-04T12:42:41.533Z,93664.09
2022-08-04T12:48:01.032Z,93665.97
2022-08-04T12:53:12.305Z,93675.22
2022-08-04T12:58:43.223Z,93672.13
2022-08-04T13:03:56.790Z,93670.31
2022-08-04T13:09:18.444Z,93676.38
2022-08-04T13:14:27.562Z,93671.59
2022-08-04T13:19:41.625Z,93681.88
2022-08-04T13:25:18.016Z,93666.47
2022-08-04T13:30:12.825Z,93685.47
2022-08-04T13:35:54.481Z,93674.66
2022-08-04T13:40:53.707Z,93663.13
2022-08-04T13:46:04.321Z,93660.84
2022-08-04T13:51:09.661Z,93645.13
2022-08-04T13:56:16.557Z,93652.63
2022-08-04T14:01:23.088Z,93640.19
2022-08-04T14:07:07.058Z,93628.00
2022-08-04T14:12:38.417Z,93627.34
2022-08-04T14:17:44.915Z,93628.63
2022-08-04T14:22:48.968Z,93646.19
2022-08-04T14:27:54.464Z,93642.53
2022-08-04T14:34:02.903Z,93654.94
2022-08-04T14:38:24.836Z,93648.13
2022-08-04T14:43:30.002Z,93656.84
2022-08-04T14:48:33.122Z,93657.47
2022-08-04T14:53:38.314Z,93670.84
2022-08-04T14:58:42.077Z,93687.41
2022-08-04T15:03:50.720Z,93698.25
2022-08-04T15:09:00.558Z,93708.91
2022-08-04T15:14:05.689Z,93702.69
2022-08-04T15:19:09.641Z,93695.88
2022-08-04T15:24:12.737Z,93691.47
2022-08-04T15:29:59.013Z,93712.22
2022-08-04T15:35:07.094Z,93708.31
2022-08-04T15:40:15.710Z,93716.19
2022-08-04T15:46:33.113Z,93692.91
2022-08-04T15:50:58.989Z,93704.16
2022-08-04T15:56:02.494Z,93691.09
2022-08-04T16:01:17.277Z,93672.78
2022-08-04T16:06:23.357Z,93663.44
2022-08-04T16:11:40.306Z,93665.84
2022-08-04T16:16:45.587Z,93657.25
2022-08-04T16:22:06.232Z,93647.78
2022-08-04T16:27:14.619Z,93650.19
2022-08-04T16:32:24.678Z,93635.97
2022-08-04T16:37:32.521Z,93640.97
2022-08-04T16:42:36.832Z,93633.56
2022-08-04T16:47:49.557Z,93626.06
2022-08-04T16:52:54.544Z,93633.59
2022-08-04T16:57:59.469Z,93622.22
2022-08-04T17:03:05.163Z,93636.50
2022-08-04T17:14:04.539Z,93633.13
2022-08-04T17:19:02.513Z,93626.44
2022-08-04T17:24:15.276Z,93646.44
2022-08-04T17:29:22.121Z,93645.13
2022-08-04T17:34:26.622Z,93642.97
2022-08-04T17:39:38.067Z,93653.75
2022-08-04T17:44:41.984Z,93645.78
2022-08-04T17:49:53.313Z,93642.84
2022-08-04T17:55:02.919Z,93660.13
2022-08-04T18:00:07.887Z,93657.44
2022-08-04T18:05:50.154Z,93657.81
2022-08-04T18:10:57.883Z,93668.53
2022-08-04T18:16:03.117Z,93670.22
2022-08-04T18:21:06.436Z,93669.81
2022-08-04T18:26:10.489Z,93675.41
2022-08-04T18:31:16.560Z,93672.81
2022-08-04T18:36:36.993Z,93687.53
2022-08-04T18:42:01.601Z,93695.75
2022-08-04T18:47:22.349Z,93687.69
2022-08-04T18:52:27.089Z,93695.75
2022-08-04T18:58:00.143Z,93707.06
2022-08-04T19:02:55.836Z,93715.19
2022-08-04T19:08:11.129Z,93716.97
2022-08-04T19:13:25.552Z,93715.63
2022-08-04T19:18:32.487Z,93718.91
2022-08-04T19:24:29.760Z,93734.13
2022-08-04T19:29:04.140Z,93737.06
2022-08-04T19:34:12.609Z,93740.50
2022-08-04T19:39:15.627Z,93733.78
2022-08-04T19:44:19.529Z,93744.94
2022-08-04T19:50:03.685Z,93751.41
2022-08-04T19:54:49.872Z,93757.09
2022-08-04T19:59:54.802Z,93767.91
2022-08-04T20:04:58.351Z,93756.47
2022-08-04T20:10:04.591Z,93745.44
2022-08-04T20:15:12.451Z,93753.69
2022-08-04T20:20:18.646Z,93746.53
2022-08-04T20:25:36.705Z,93731.78
2022-08-04T20:30:42.317Z,93747.91
2022-08-04T20:36:05.299Z,93750.81
2022-08-04T20:41:09.966Z,93751.84
2022-08-04T20:46:18.240Z,93751.31
2022-08-04T20:51:32.094Z,93749.34
2022-08-04T20:56:37.900Z,93752.50
2022-08-04T21:01:54.069Z,93741.75
2022-08-04T21:07:00.105Z,93748.25
2022-08-04T21:12:05.169Z,93750.94
2022-08-04T21:17:08.848Z,93739.25
2022-08-04T21:22:33.207Z,93754.59
2022-08-04T21:27:39.623Z,93761.25
2022-08-04T21:32:42.877Z,93750.25
2022-08-04T21:37:58.370Z,93738.22
2022-08-04T21:43:04.826Z,93745.91
2022-08-04T21:48:11.209Z,93759.97
2022-08-04T21:53:14.814Z,93759.63
2022-08-04T21:58:32.246Z,93767.81
2022-08-04T22:03:52.750Z,93757.50
2022-08-04T22:08:58.266Z,93763.69
2022-08-04T22:14:10.295Z,93766.59
2022-08-04T22:19:14.467Z,93755.97
2022-08-04T22:24:26.748Z,93759.63
2022-08-04T22:29:32.986Z,93755.72
2022-08-04T22:34:39.679Z,93746.72
2022-08-04T22:39:56.316Z,93748.56
2022-08-04T22:44:59.994Z,93738.69
2022-08-04T22:50:27.592Z,93743.69
2022-08-04T22:56:06.474Z,93738.97
2022-08-04T23:00:53.998Z,93740.78
2022-08-04T23:06:06.613Z,93736.00
2022-08-04T23:11:14.782Z,93734.78
2022-08-04T23:16:19.744Z,93716.97
2022-08-04T23:21:24.317Z,93727.53
2022-08-04T23:26:28.468Z,93722.75
2022-08-04T23:31:40.790Z,93726.91
2022-08-04T23:36:52.049Z,93726.63
2022-08-04T23:41:57.743Z,93717.97
2022-08-04T23:47:03.238Z,93729.47
2022-08-04T23:52:06.696Z,93711.59
2022-08-04T23:57:17.313Z,93711.44
